createdAt,value
2018-02-17T00:00:26.425Z,1.20
2018-02-17T00:02:53.950Z,1.20
2018-02-17T00:05:21.500Z,1.20
2018-02-17T00:07:49.037Z,1.20
2018-02-17T00:10:18.232Z,1.30
2018-02-17T00:12:45.785Z,1.30
2018-02-17T00:15:13.333Z,1.30
2018-02-17T00:17:40.890Z,1.30
2018-02-17T00:20:08.434Z,1.20
2018-02-17T00:22:35.987Z,1.20
2018-02-17T00:25:03.524Z,1.20
2018-02-17T00:27:31.086Z,1.30
2018-02-17T00:29:58.613Z,1.30
2018-02-17T00:32:26.159Z,1.30
2018-02-17T00:34:53.710Z,1.30
2018-02-17T00:37:21.273Z,1.20
2018-02-17T00:39:48.800Z,1.20
2018-02-17T00:42:16.432Z,1.10
2018-02-17T00:44:44.098Z,1.20
2018-02-17T00:47:11.638Z,1.20
2018-02-17T00:49:39.177Z,1.30
2018-02-17T00:52:06.706Z,1.30
2018-02-17T00:54:34.259Z,1.30
2018-02-17T00:57:01.791Z,1.20
2018-02-17T00:59:29.369Z,1.30
2018-02-17T01:01:56.902Z,1.30
2018-02-17T01:04:24.549Z,1.30
2018-02-17T01:06:52.146Z,1.20
2018-02-17T01:09:20.457Z,1.20
2018-02-17T01:11:48.292Z,1.20
2018-02-17T01:14:15.858Z,1.30
2018-02-17T01:16:43.407Z,1.40
2018-02-17T01:19:11.191Z,1.40
2018-02-17T01:21:38.733Z,1.40
2018-02-17T01:24:06.352Z,1.40
2018-02-17T01:26:33.925Z,1.40
2018-02-17T01:29:01.454Z,1.60
2018-02-17T01:31:29.006Z,1.70
2018-02-17T01:33:56.533Z,1.80
2018-02-17T01:36:24.076Z,1.80
2018-02-17T01:38:51.606Z,1.80
2018-02-17T01:41:19.161Z,1.90
2018-02-17T01:43:46.707Z,1.90
2018-02-17T01:46:14.363Z,2.00
2018-02-17T01:48:41.902Z,2.00
2018-02-17T01:51:09.445Z,2.10
2018-02-17T01:53:37.006Z,2.10
2018-02-17T01:56:04.530Z,2.10
2018-02-17T01:58:32.182Z,2.10
2018-02-17T02:00:59.712Z,2.10
2018-02-17T02:03:27.272Z,2.20
2018-02-17T02:05:54.801Z,2.20
2018-02-17T02:08:22.370Z,2.20
2018-02-17T02:10:49.905Z,2.10
2018-02-17T02:13:17.494Z,2.20
2018-02-17T02:15:45.802Z,2.20
2018-02-17T02:18:13.326Z,2.20
2018-02-17T02:20:40.861Z,2.20
2018-02-17T02:23:08.388Z,2.20
2018-02-17T02:25:35.925Z,2.20
2018-02-17T02:28:04.227Z,2.10
2018-02-17T02:30:31.772Z,2.00
2018-02-17T02:32:59.307Z,2.10
2018-02-17T02:35:26.866Z,2.10
2018-02-17T02:37:54.408Z,2.10
2018-02-17T02:40:22.717Z,2.20
2018-02-17T02:42:50.251Z,2.10
2018-02-17T02:45:17.894Z,2.20
2018-02-17T02:47:45.421Z,2.20
2018-02-17T02:50:13.384Z,2.20
2018-02-17T02:52:40.905Z,2.20
2018-02-17T02:55:08.445Z,2.30
2018-02-17T02:57:35.965Z,2.30
2018-02-17T03:00:04.322Z,2.40
2018-02-17T03:02:32.614Z,2.40
2018-02-17T03:05:00.140Z,2.40
2018-02-17T03:07:28.965Z,2.30
2018-02-17T03:09:56.493Z,2.30
2018-02-17T03:12:24.047Z,2.40
2018-02-17T03:14:51.573Z,2.40
2018-02-17T03:17:19.172Z,2.40
2018-02-17T03:19:46.702Z,2.50
2018-02-17T03:22:15.058Z,2.50
2018-02-17T03:24:42.585Z,2.50
2018-02-17T03:27:10.127Z,2.50
2018-02-17T03:29:37.656Z,2.50
2018-02-17T03:32:05.193Z,2.50
2018-02-17T03:34:32.725Z,2.50
2018-02-17T03:37:01.034Z,2.50
2018-02-17T03:39:28.553Z,2.50
2018-02-17T03:41:56.100Z,2.50
2018-02-17T03:44:23.620Z,2.50
2018-02-17T03:46:51.920Z,2.50
2018-02-17T03:49:19.600Z,2.40
2018-02-17T03:51:47.129Z,2.50
2018-02-17T03:54:14.676Z,2.50
2018-02-17T03:56:42.198Z,2.60
2018-02-17T03:59:09.733Z,2.50
2018-02-17T04:01:37.249Z,2.50
2018-02-17T04:04:04.789Z,2.50
2018-02-17T04:06:32.332Z,2.50
2018-02-17T04:09:00.637Z,2.70
2018-02-17T04:11:28.237Z,2.60
2018-02-17T04:13:56.545Z,2.70
2018-02-17T04:16:24.100Z,2.60
2018-02-17T04:18:51.674Z,2.60
2018-02-17T04:21:19.977Z,2.60
2018-02-17T04:23:47.510Z,2.60
2018-02-17T04:26:15.058Z,2.60
2018-02-17T04:28:43.497Z,2.60
2018-02-17T04:31:11.806Z,2.50
2018-02-17T04:33:39.351Z,2.50
2018-02-17T04:36:06.907Z,2.50
2018-02-17T04:38:34.442Z,2.40
2018-02-17T04:41:03.945Z,2.40
2018-02-17T04:43:31.474Z,2.50
2018-02-17T04:49:09.865Z,2.50
2018-02-17T04:51:41.250Z,2.60
2018-02-17T04:54:10.474Z,2.60
2018-02-17T04:56:40.608Z,2.50
2018-02-17T04:59:13.721Z,2.60
2018-02-17T05:01:57.894Z,2.50
2018-02-17T05:04:25.840Z,2.50
2018-02-17T05:10:06.492Z,2.50
2018-02-17T05:12:34.033Z,2.50
2018-02-17T05:18:04.290Z,2.50
2018-02-17T05:20:36.442Z,2.50
2018-02-17T05:23:09.433Z,2.50
2018-02-17T05:25:41.396Z,2.50
2018-02-17T05:28:09.830Z,2.50
2018-02-17T05:33:50.507Z,2.60
2018-02-17T05:36:18.962Z,2.60
2018-02-17T05:39:04.988Z,2.60
2018-02-17T05:41:39.063Z,2.60
2018-02-17T05:44:06.606Z,2.60
2018-02-17T05:46:36.025Z,2.60
2018-02-17T05:49:03.570Z,2.60
2018-02-17T05:51:31.115Z,2.60
2018-02-17T05:53:58.653Z,2.60
2018-02-17T05:56:26.196Z,2.60
2018-02-17T05:58:53.765Z,2.60
2018-02-17T06:01:21.297Z,2.60
2018-02-17T06:03:49.631Z,2.60
2018-02-17T06:06:17.161Z,2.60
2018-02-17T06:08:44.735Z,2.60
2018-02-17T06:11:12.302Z,2.60
2018-02-17T06:13:39.841Z,2.60
2018-02-17T06:16:07.377Z,2.70
2018-02-17T06:18:34.899Z,2.70
2018-02-17T06:21:02.436Z,2.60
2018-02-17T06:23:29.961Z,2.60
2018-02-17T06:25:57.505Z,2.60
2018-02-17T06:28:25.201Z,2.70
2018-02-17T06:30:52.745Z,2.70
2018-02-17T06:33:20.285Z,2.80
2018-02-17T06:35:48.186Z,2.80
2018-02-17T06:38:15.745Z,2.70
2018-02-17T06:40:43.280Z,2.70
2018-02-17T06:43:10.850Z,2.80
2018-02-17T06:45:38.377Z,2.80
2018-02-17T06:48:05.927Z,2.80
2018-02-17T06:50:33.461Z,2.80
2018-02-17T06:53:01.012Z,2.80
2018-02-17T06:55:28.533Z,2.80
2018-02-17T06:57:56.842Z,2.90
2018-02-17T07:00:24.357Z,2.90
2018-02-17T07:02:51.900Z,3.00
2018-02-17T07:05:19.439Z,3.00
2018-02-17T07:07:46.999Z,3.00
2018-02-17T07:10:14.516Z,3.00
2018-02-17T07:12:42.844Z,3.10
2018-02-17T07:15:10.376Z,3.10
2018-02-17T07:17:37.907Z,3.20
2018-02-17T07:20:05.443Z,3.20
2018-02-17T07:22:32.964Z,3.20
2018-02-17T07:25:00.510Z,3.20
2018-02-17T07:27:28.064Z,3.20
2018-02-17T07:29:55.599Z,3.20
2018-02-17T07:32:23.130Z,3.20
2018-02-17T07:34:50.690Z,3.20
2018-02-17T07:37:18.532Z,3.20
2018-02-17T07:39:46.068Z,3.20
2018-02-17T07:42:14.357Z,3.40
2018-02-17T07:44:41.893Z,3.30
2018-02-17T07:47:09.444Z,3.40
2018-02-17T07:49:37.009Z,3.40
2018-02-17T07:52:04.528Z,3.40
2018-02-17T07:54:32.061Z,3.40
2018-02-17T07:56:59.593Z,3.40
2018-02-17T07:59:27.884Z,3.40
2018-02-17T08:01:55.424Z,3.40
2018-02-17T08:04:22.945Z,3.50
2018-02-17T08:06:51.252Z,3.50
2018-02-17T08:09:18.806Z,3.40
2018-02-17T08:11:46.353Z,3.40
2018-02-17T08:14:14.660Z,3.30
2018-02-17T08:16:42.969Z,3.30
2018-02-17T08:19:10.577Z,3.30
2018-02-17T08:21:38.138Z,3.30
2018-02-17T08:24:05.657Z,3.30
2018-02-17T08:26:33.185Z,3.40
2018-02-17T08:29:01.493Z,3.50
2018-02-17T08:31:29.021Z,3.50
2018-02-17T08:33:56.562Z,3.50
2018-02-17T08:36:24.121Z,3.60
2018-02-17T08:38:51.681Z,3.80
2018-02-17T08:41:19.213Z,3.90
2018-02-17T08:43:46.852Z,4.00
2018-02-17T08:46:14.378Z,4.00
2018-02-17T08:48:41.948Z,4.00
2018-02-17T08:51:09.503Z,4.10
2018-02-17T08:53:37.114Z,4.10
2018-02-17T08:56:04.660Z,4.10
2018-02-17T08:58:32.185Z,4.10
2018-02-17T09:01:00.494Z,4.10
2018-02-17T09:03:29.354Z,4.10
2018-02-17T09:05:56.920Z,4.10
2018-02-17T09:08:24.452Z,4.10
2018-02-17T09:10:52.110Z,4.10
2018-02-17T09:13:19.644Z,4.20
2018-02-17T09:15:47.204Z,4.20
2018-02-17T09:18:14.743Z,4.30
2018-02-17T09:20:42.284Z,4.30
2018-02-17T09:23:09.813Z,4.40
2018-02-17T09:25:37.337Z,4.50
2018-02-17T09:28:05.644Z,4.60
2018-02-17T09:30:33.174Z,4.60
2018-02-17T09:33:00.717Z,4.70
2018-02-17T09:35:29.165Z,4.70
2018-02-17T09:37:56.710Z,4.80
2018-02-17T09:40:24.245Z,4.90
2018-02-17T09:42:51.913Z,5.10
2018-02-17T09:45:19.449Z,5.20
2018-02-17T09:47:46.997Z,5.30
2018-02-17T09:50:14.522Z,5.30
2018-02-17T09:52:42.845Z,5.30
2018-02-17T09:55:10.473Z,5.20
2018-02-17T09:57:38.029Z,5.20
2018-02-17T10:00:05.549Z,5.30
2018-02-17T10:02:33.115Z,5.30
2018-02-17T10:05:00.649Z,5.50
2018-02-17T10:07:28.169Z,5.50
2018-02-17T10:09:55.734Z,5.70
2018-02-17T10:12:23.266Z,5.80
2018-02-17T10:14:50.810Z,5.70
2018-02-17T10:17:18.364Z,5.80
2018-02-17T10:19:46.021Z,5.90
2018-02-17T10:22:13.541Z,5.90
2018-02-17T10:24:41.099Z,5.80
2018-02-17T10:27:08.659Z,5.80
2018-02-17T10:29:36.196Z,5.70
2018-02-17T10:32:03.721Z,5.60
2018-02-17T10:34:31.308Z,5.70
2018-02-17T10:36:58.825Z,5.70
2018-02-17T10:39:26.372Z,5.70
2018-02-17T10:41:53.918Z,5.80
2018-02-17T10:44:21.475Z,6.00
2018-02-17T10:46:49.113Z,6.00
2018-02-17T10:49:16.657Z,6.20
2018-02-17T10:51:44.207Z,6.20
2018-02-17T10:54:11.737Z,6.20
2018-02-17T10:56:39.298Z,6.30
2018-02-17T10:59:06.929Z,6.30
2018-02-17T11:01:34.488Z,6.30
2018-02-17T11:04:02.037Z,6.40
2018-02-17T11:06:29.585Z,6.30
2018-02-17T11:08:57.208Z,6.50
2018-02-17T11:11:24.757Z,6.60
2018-02-17T11:13:52.281Z,6.70
2018-02-17T11:16:19.884Z,6.80
2018-02-17T11:18:47.408Z,6.90
2018-02-17T11:21:14.969Z,6.70
2018-02-17T11:23:44.019Z,6.50
2018-02-17T11:26:11.598Z,6.50
2018-02-17T11:28:39.901Z,6.70
2018-02-17T11:31:07.490Z,6.70
2018-02-17T11:33:35.813Z,6.90
2018-02-17T11:36:03.365Z,6.90
2018-02-17T11:38:30.910Z,6.80
2018-02-17T11:40:58.453Z,6.80
2018-02-17T11:43:25.991Z,6.90
2018-02-17T11:45:53.521Z,6.90
2018-02-17T11:48:21.063Z,6.90
2018-02-17T11:50:48.707Z,6.90
2018-02-17T11:53:16.267Z,6.80
2018-02-17T11:55:43.821Z,6.90
2018-02-17T11:58:11.387Z,6.80
2018-02-17T12:00:39.040Z,6.80
2018-02-17T12:03:06.586Z,6.80
2018-02-17T12:05:34.106Z,6.80
2018-02-17T12:08:01.755Z,6.80
2018-02-17T12:10:29.318Z,6.80
2018-02-17T12:12:56.915Z,6.80
2018-02-17T12:15:24.448Z,6.70
2018-02-17T12:17:52.068Z,6.70
2018-02-17T12:20:19.633Z,6.70
2018-02-17T12:22:47.968Z,6.80
2018-02-17T12:25:17.032Z,6.90
2018-02-17T12:27:44.567Z,6.90
2018-02-17T12:30:12.161Z,6.80
2018-02-17T12:32:40.490Z,6.90
2018-02-17T12:35:08.040Z,6.80
2018-02-17T12:37:35.666Z,7.00
2018-02-17T12:40:03.212Z,7.00
2018-02-17T12:42:30.733Z,7.10
2018-02-17T12:44:58.296Z,7.20
2018-02-17T12:47:26.222Z,7.20
2018-02-17T12:49:53.903Z,7.20
2018-02-17T12:52:21.446Z,7.10
2018-02-17T12:54:48.986Z,7.10
2018-02-17T12:57:16.559Z,7.00
2018-02-17T12:59:44.124Z,6.90
2018-02-17T13:02:12.462Z,6.80
2018-02-17T13:04:40.758Z,6.80
2018-02-17T13:07:09.069Z,6.60
2018-02-17T13:09:36.785Z,6.60
2018-02-17T13:12:04.373Z,6.60
2018-02-17T13:14:31.920Z,6.50
2018-02-17T13:17:00.270Z,6.60
2018-02-17T13:19:27.788Z,6.60
2018-02-17T13:21:55.327Z,6.60
2018-02-17T13:24:22.874Z,6.50
2018-02-17T13:26:50.425Z,6.50
2018-02-17T13:29:18.782Z,6.50
2018-02-17T13:31:46.319Z,6.50
2018-02-17T13:34:13.837Z,6.50
2018-02-17T13:36:41.382Z,6.40
2018-02-17T13:39:09.668Z,6.60
2018-02-17T13:41:37.987Z,6.70
2018-02-17T13:44:06.285Z,6.70
2018-02-17T13:46:33.822Z,6.70
2018-02-17T13:49:02.120Z,6.50
2018-02-17T13:51:29.699Z,6.50
2018-02-17T13:53:58.100Z,6.60
2018-02-17T13:56:26.580Z,6.60
2018-02-17T13:58:54.133Z,6.50
2018-02-17T14:01:21.677Z,6.60
2018-02-17T14:03:49.260Z,6.60
2018-02-17T14:06:16.793Z,6.30
2018-02-17T14:08:44.349Z,6.10
2018-02-17T14:11:11.870Z,6.00
2018-02-17T14:13:39.525Z,6.20
2018-02-17T14:16:07.064Z,6.30
2018-02-17T14:18:34.630Z,6.30
2018-02-17T14:21:02.203Z,6.30
2018-02-17T14:23:29.758Z,6.30
2018-02-17T14:25:57.299Z,6.30
2018-02-17T14:28:25.588Z,6.20
2018-02-17T14:30:53.236Z,6.20
2018-02-17T14:33:20.795Z,6.30
2018-02-17T14:35:48.440Z,6.30
2018-02-17T14:38:15.989Z,6.40
2018-02-17T14:40:43.557Z,6.40
2018-02-17T14:43:11.098Z,6.20
2018-02-17T14:45:38.656Z,6.20
2018-02-17T14:48:07.255Z,6.20
2018-02-17T14:50:35.060Z,6.00
2018-02-17T14:53:02.597Z,6.00
2018-02-17T14:55:30.226Z,5.90
2018-02-17T14:57:57.789Z,5.80
2018-02-17T15:00:25.338Z,5.70
2018-02-17T15:02:52.964Z,5.80
2018-02-17T15:05:20.530Z,5.80
2018-02-17T15:07:48.231Z,5.80
2018-02-17T15:10:15.766Z,5.80
2018-02-17T15:12:43.308Z,5.70
2018-02-17T15:15:10.899Z,5.70
2018-02-17T15:17:38.468Z,5.70
2018-02-17T15:20:06.763Z,5.60
2018-02-17T15:22:34.349Z,5.50
2018-02-17T15:25:01.868Z,5.40
2018-02-17T15:27:29.406Z,5.50
2018-02-17T15:29:56.942Z,5.50
2018-02-17T15:32:24.484Z,5.50
2018-02-17T15:34:52.012Z,5.40
2018-02-17T15:37:20.317Z,5.20
2018-02-17T15:39:47.848Z,5.10
2018-02-17T15:42:15.405Z,5.20
2018-02-17T15:44:42.964Z,5.20
2018-02-17T15:47:10.579Z,5.20
2018-02-17T15:49:38.114Z,5.20
2018-02-17T15:52:05.699Z,5.10
2018-02-17T15:54:33.305Z,5.10
2018-02-17T15:57:01.602Z,5.10
2018-02-17T15:59:29.137Z,5.10
2018-02-17T16:01:57.470Z,5.10
2018-02-17T16:04:25.050Z,5.10
2018-02-17T16:06:52.590Z,5.10
2018-02-17T16:09:21.060Z,5.00
2018-02-17T16:11:48.932Z,5.00
2018-02-17T16:14:16.507Z,5.00
2018-02-17T16:16:44.045Z,5.00
2018-02-17T16:19:11.597Z,5.00
2018-02-17T16:21:39.132Z,5.00
2018-02-17T16:24:06.697Z,5.10
2018-02-17T16:26:34.270Z,5.00
2018-02-17T16:29:02.577Z,5.00
2018-02-17T16:31:30.093Z,5.00
2018-02-17T16:33:57.677Z,5.00
2018-02-17T16:36:25.197Z,5.00
2018-02-17T16:38:52.795Z,5.00
2018-02-17T16:41:21.125Z,4.80
2018-02-17T16:43:48.702Z,4.80
2018-02-17T16:46:17.021Z,4.80
2018-02-17T16:48:44.559Z,4.80
2018-02-17T16:51:12.097Z,4.80
2018-02-17T16:53:39.616Z,4.80
2018-02-17T16:56:07.927Z,4.70
2018-02-17T16:58:35.460Z,4.70
2018-02-17T17:01:02.996Z,4.70
2018-02-17T17:03:30.567Z,4.70
2018-02-17T17:05:58.136Z,4.80
2018-02-17T17:08:25.660Z,4.90
2018-02-17T17:10:59.212Z,4.90
2018-02-17T17:13:26.755Z,4.80
2018-02-17T17:15:54.459Z,4.80
2018-02-17T17:18:22.028Z,4.80
2018-02-17T17:20:49.613Z,4.80
2018-02-17T17:23:17.170Z,4.80
2018-02-17T17:25:44.713Z,4.90
2018-02-17T17:28:12.358Z,4.90
2018-02-17T17:30:39.872Z,4.90
2018-02-17T17:33:07.413Z,4.80
2018-02-17T17:35:35.013Z,4.90
2018-02-17T17:38:02.937Z,4.90
2018-02-17T17:40:31.712Z,4.90
2018-02-17T17:42:59.560Z,4.90
2018-02-17T17:45:27.968Z,4.90
2018-02-17T17:47:56.295Z,4.90
2018-02-17T17:50:24.112Z,4.90
2018-02-17T17:52:51.684Z,5.00
2018-02-17T17:55:19.355Z,5.00
2018-02-17T17:57:46.921Z,5.00
2018-02-17T18:00:15.445Z,5.00
2018-02-17T18:02:42.989Z,5.00
2018-02-17T18:05:10.514Z,5.00
2018-02-17T18:07:40.732Z,4.80
2018-02-17T18:10:09.039Z,4.70
2018-02-17T18:12:36.569Z,4.70
2018-02-17T18:15:04.112Z,4.70
2018-02-17T18:17:31.665Z,4.70
2018-02-17T18:19:59.245Z,4.70
2018-02-17T18:22:26.776Z,4.70
2018-02-17T18:24:55.193Z,4.70
2018-02-17T18:27:22.717Z,4.70
2018-02-17T18:29:50.257Z,4.70
2018-02-17T18:32:17.845Z,4.80
2018-02-17T18:34:45.404Z,4.70
2018-02-17T18:37:12.941Z,4.70
2018-02-17T18:39:40.505Z,4.70
2018-02-17T18:42:08.828Z,4.60
2018-02-17T18:44:36.378Z,4.60
2018-02-17T18:47:03.904Z,4.70
2018-02-17T18:49:31.465Z,4.70
2018-02-17T18:51:59.097Z,4.70
2018-02-17T18:54:26.637Z,4.60
2018-02-17T18:56:54.198Z,4.60
2018-02-17T18:59:21.732Z,4.60
2018-02-17T19:01:49.520Z,4.60
2018-02-17T19:04:18.127Z,4.60
2018-02-17T19:06:45.703Z,4.60
2018-02-17T19:09:13.339Z,4.60
2018-02-17T19:11:40.901Z,4.60
2018-02-17T19:14:08.426Z,4.60
2018-02-17T19:16:35.971Z,4.60
2018-02-17T19:19:03.493Z,4.60
2018-02-17T19:21:31.054Z,4.60
2018-02-17T19:23:58.677Z,4.60
2018-02-17T19:26:26.224Z,4.60
2018-02-17T19:28:53.834Z,4.60
2018-02-17T19:31:22.142Z,4.60
2018-02-17T19:33:49.695Z,4.60
2018-02-17T19:36:17.886Z,4.60
2018-02-17T19:38:45.453Z,4.60
2018-02-17T19:41:13.766Z,4.60
2018-02-17T19:43:41.322Z,4.50
2018-02-17T19:46:08.866Z,4.40
2018-02-17T19:48:36.484Z,4.40
2018-02-17T19:51:04.001Z,4.50
2018-02-17T19:53:32.329Z,4.40
2018-02-17T19:55:59.852Z,4.40
2018-02-17T19:58:27.435Z,4.30
2018-02-17T20:00:54.939Z,4.30
2018-02-17T20:03:22.524Z,4.40
2018-02-17T20:05:50.069Z,4.30
2018-02-17T20:08:17.968Z,4.40
2018-02-17T20:10:45.537Z,4.30
2018-02-17T20:13:13.065Z,4.30
2018-02-17T20:15:40.617Z,4.30
2018-02-17T20:18:08.137Z,4.30
2018-02-17T20:20:35.684Z,4.20
2018-02-17T20:23:03.230Z,4.20
2018-02-17T20:25:30.791Z,4.20
2018-02-17T20:27:58.326Z,4.20
2018-02-17T20:30:25.894Z,4.30
2018-02-17T20:32:53.426Z,4.30
2018-02-17T20:35:21.997Z,4.40
2018-02-17T20:37:49.533Z,4.40
2018-02-17T20:40:17.351Z,4.40
2018-02-17T20:42:44.919Z,4.40
2018-02-17T20:45:12.489Z,4.30
2018-02-17T20:47:40.013Z,4.30
2018-02-17T20:50:07.534Z,4.30
2018-02-17T20:52:35.107Z,4.40
2018-02-17T20:55:02.714Z,4.40
2018-02-17T20:57:31.040Z,4.40
2018-02-17T20:59:58.585Z,4.40
2018-02-17T21:02:26.130Z,4.40
2018-02-17T21:04:53.661Z,4.40
2018-02-17T21:07:21.224Z,4.30
2018-02-17T21:09:48.844Z,4.30
2018-02-17T21:12:16.513Z,4.30
2018-02-17T21:14:44.037Z,4.20
2018-02-17T21:17:11.642Z,4.20
2018-02-17T21:19:40.112Z,4.10
2018-02-17T21:22:09.407Z,4.20
2018-02-17T21:24:36.965Z,4.10
2018-02-17T21:27:04.613Z,4.20
2018-02-17T21:29:32.186Z,4.10
2018-02-17T21:31:59.717Z,4.10
2018-02-17T21:34:27.330Z,4.10
2018-02-17T21:36:55.588Z,4.10
2018-02-17T21:39:23.153Z,4.10
2018-02-17T21:41:50.707Z,4.10
2018-02-17T21:44:18.236Z,4.20
2018-02-17T21:46:45.789Z,4.10
2018-02-17T21:49:13.348Z,4.20
2018-02-17T21:51:40.910Z,4.10
2018-02-17T21:54:08.441Z,4.10
2018-02-17T21:56:36.099Z,4.10
2018-02-17T21:59:03.684Z,4.10
2018-02-17T22:01:31.997Z,4.10
2018-02-17T22:03:59.735Z,4.10
2018-02-17T22:06:27.313Z,4.10
2018-02-17T22:08:54.903Z,4.00
2018-02-17T22:11:22.456Z,3.90
2018-02-17T22:13:50.018Z,3.90
2018-02-17T22:16:17.573Z,3.80
2018-02-17T22:18:45.123Z,3.70
2018-02-17T22:21:12.673Z,3.80
2018-02-17T22:23:41.140Z,3.80
2018-02-17T22:26:08.726Z,3.80
2018-02-17T22:28:36.509Z,3.90
2018-02-17T22:31:04.099Z,3.90
2018-02-17T22:33:31.763Z,3.90
2018-02-17T22:36:00.221Z,4.00
2018-02-17T22:38:27.783Z,4.00
2018-02-17T22:40:55.324Z,4.00
2018-02-17T22:43:22.941Z,4.00
2018-02-17T22:45:50.493Z,3.90
2018-02-17T22:48:18.815Z,3.90
2018-02-17T22:50:46.361Z,3.90
2018-02-17T22:53:13.906Z,3.90
2018-02-17T22:55:41.567Z,3.90
2018-02-17T22:58:09.193Z,3.90
2018-02-17T23:00:40.601Z,3.80
2018-02-17T23:03:08.148Z,3.90
2018-02-17T23:05:35.692Z,3.80
2018-02-17T23:08:03.258Z,3.90
2018-02-17T23:10:30.793Z,3.80
2018-02-17T23:12:58.328Z,3.80
2018-02-17T23:15:25.868Z,3.90
2018-02-17T23:17:53.396Z,3.90
2018-02-17T23:20:21.010Z,3.90
2018-02-17T23:22:49.326Z,3.90
2018-02-17T23:25:16.876Z,3.90
2018-02-17T23:27:44.428Z,3.90
2018-02-17T23:30:12.801Z,3.90
2018-02-17T23:32:40.321Z,3.90
2018-02-17T23:35:07.882Z,3.90
2018-02-17T23:37:35.415Z,3.80
2018-02-17T23:40:02.964Z,3.80
2018-02-17T23:42:30.539Z,3.80
2018-02-17T23:44:58.109Z,3.80
2018-02-17T23:47:25.645Z,3.70
2018-02-17T23:49:53.533Z,3.70
2018-02-17T23:52:21.288Z,3.70
2018-02-17T23:54:49.671Z,3.70
2018-02-17T23:57:17.440Z,3.70
2018-02-17T23:59:45.074Z,3.70
